Rocky Mount, North Carolina
Current Conditions -  °F | °C
As of 2:53 AM on Sunday 21 Dec 2014 (Local Time) from KRWI Reporting Station
Broken Clouds Broken Clouds  
Wind Chill: 29°   Ceiling: 3200
Heat Index: 34°   Visibility: 8mi
Dew Point: 32°   Wind: 6mph
Humidity: 92%   Direction: 20°NNE
Pressure: 30.29"   Gusts: NA
Location:  35.95°N, 77.79°W
Report Text: KRWI 210753Z AUTO 02005KT 8SM BKN032 BKN070 01/00 A3029 RMK AO2 SLP257 T00110000
Loading
Personal Weather Stations






























Interactive Weather Map New forecast layout! Learn more

10-Day Weather Forecast

Advertisements
Track Severe Weather on mobile